createdAt,value
2018-02-23T00:00:30.493Z,77.56
2018-02-23T00:02:58.877Z,77.60
2018-02-23T00:05:27.270Z,77.42
2018-02-23T00:07:55.719Z,77.18
2018-02-23T00:10:24.139Z,77.08
2018-02-23T00:12:52.510Z,76.64
2018-02-23T00:15:20.881Z,76.97
2018-02-23T00:17:49.266Z,77.23
2018-02-23T00:20:17.664Z,77.46
2018-02-23T00:22:47.082Z,77.20
2018-02-23T00:25:16.206Z,76.88
2018-02-23T00:27:44.597Z,76.82
2018-02-23T00:30:12.991Z,77.21
2018-02-23T00:32:41.569Z,77.07
2018-02-23T00:35:10.446Z,77.26
2018-02-23T00:37:39.116Z,77.37
2018-02-23T00:40:07.482Z,77.51
2018-02-23T00:42:35.877Z,77.88
2018-02-23T00:45:04.282Z,77.75
2018-02-23T00:47:32.641Z,77.77
2018-02-23T00:50:01.034Z,78.03
2018-02-23T00:52:29.398Z,78.14
2018-02-23T00:54:57.793Z,78.05
2018-02-23T00:57:26.166Z,77.87
2018-02-23T01:02:51.533Z,77.93
2018-02-23T01:05:19.915Z,77.88
2018-02-23T01:07:48.282Z,77.55
2018-02-23T01:10:16.664Z,76.94
2018-02-23T01:12:45.035Z,76.54
2018-02-23T01:15:13.418Z,76.63
2018-02-23T01:17:41.776Z,76.68
2018-02-23T01:20:10.168Z,76.71
2018-02-23T01:22:38.557Z,76.68
2018-02-23T01:25:06.933Z,76.53
2018-02-23T01:27:35.294Z,76.64
2018-02-23T01:30:03.675Z,76.58
2018-02-23T01:32:32.050Z,76.54
2018-02-23T01:35:00.418Z,76.62
2018-02-23T01:37:28.840Z,77.11
2018-02-23T01:39:57.213Z,77.18
2018-02-23T01:42:25.577Z,77.67
2018-02-23T01:44:53.946Z,77.12
2018-02-23T01:47:22.317Z,77.46
2018-02-23T01:49:50.702Z,77.53
2018-02-23T01:52:19.073Z,77.40
2018-02-23T01:54:47.477Z,77.18
2018-02-23T01:57:15.849Z,77.06
2018-02-23T01:59:44.985Z,77.14
2018-02-23T02:02:14.162Z,77.37
2018-02-23T02:04:42.530Z,77.28
2018-02-23T02:07:10.922Z,77.04
2018-02-23T02:09:39.296Z,77.35
2018-02-23T02:12:07.665Z,77.59
2018-02-23T02:14:36.034Z,77.41
2018-02-23T02:17:04.424Z,77.55
2018-02-23T02:19:32.797Z,77.18
2018-02-23T02:22:01.174Z,76.67
2018-02-23T02:24:29.569Z,75.61
2018-02-23T02:26:57.939Z,75.98
2018-02-23T02:29:26.310Z,75.98
2018-02-23T02:31:54.706Z,76.06
2018-02-23T02:34:23.078Z,75.92
2018-02-23T02:36:51.453Z,76.37
2018-02-23T02:39:19.834Z,75.98
2018-02-23T02:41:48.197Z,75.82
2018-02-23T02:44:16.597Z,75.43
2018-02-23T02:46:44.973Z,75.69
2018-02-23T02:49:13.352Z,75.80
2018-02-23T02:51:41.761Z,75.49
2018-02-23T02:54:10.915Z,75.71
2018-02-23T02:56:39.290Z,75.61
2018-02-23T02:59:07.762Z,75.47
2018-02-23T03:01:36.135Z,75.67
2018-02-23T03:04:04.512Z,75.25
2018-02-23T03:06:32.926Z,75.42
2018-02-23T03:09:01.299Z,75.41
2018-02-23T03:11:29.680Z,75.61
2018-02-23T03:13:58.066Z,76.54
2018-02-23T03:16:26.439Z,77.00
2018-02-23T03:18:54.842Z,77.21
2018-02-23T03:21:23.986Z,77.69
2018-02-23T03:23:52.352Z,77.81
2018-02-23T03:26:20.753Z,77.57
2018-02-23T03:28:49.125Z,77.67
2018-02-23T03:31:17.508Z,77.65
2018-02-23T03:33:45.892Z,77.85
2018-02-23T03:36:14.265Z,78.05
2018-02-23T03:38:42.638Z,78.30
2018-02-23T03:41:11.083Z,78.46
2018-02-23T03:43:39.469Z,78.77
2018-02-23T03:46:07.863Z,79.08
2018-02-23T03:48:36.251Z,79.49
2018-02-23T03:51:04.644Z,79.96
2018-02-23T03:53:33.017Z,80.24
2018-02-23T03:56:01.384Z,80.44
2018-02-23T03:58:29.759Z,80.98
2018-02-23T04:00:58.150Z,81.13
2018-02-23T04:03:26.533Z,81.38
2018-02-23T04:05:54.923Z,81.63
2018-02-23T04:08:23.314Z,81.67
2018-02-23T04:10:51.684Z,81.77
2018-02-23T04:13:20.070Z,81.65
2018-02-23T04:15:48.461Z,81.38
2018-02-23T04:18:16.852Z,80.44
2018-02-23T04:20:45.998Z,79.69
2018-02-23T04:23:14.401Z,78.67
2018-02-23T04:25:42.838Z,78.19
2018-02-23T04:28:11.216Z,77.87
2018-02-23T04:30:39.613Z,77.33
2018-02-23T04:33:08.010Z,76.57
2018-02-23T04:35:36.377Z,76.38
2018-02-23T04:38:05.521Z,76.47
2018-02-23T04:40:33.982Z,76.13
2018-02-23T04:43:02.314Z,76.18
2018-02-23T04:45:30.681Z,76.40
2018-02-23T04:47:59.082Z,76.48
2018-02-23T04:50:27.457Z,76.47
2018-02-23T04:52:55.833Z,76.80
2018-02-23T04:55:24.244Z,76.92
2018-02-23T04:57:52.710Z,77.03
2018-02-23T05:00:21.089Z,77.41
2018-02-23T05:02:49.468Z,77.74
2018-02-23T05:05:17.877Z,78.04
2018-02-23T05:07:46.252Z,78.30
2018-02-23T05:10:15.422Z,78.58
2018-02-23T05:12:43.809Z,79.05
2018-02-23T05:15:12.185Z,79.97
2018-02-23T05:17:40.568Z,82.20
2018-02-23T05:20:08.966Z,83.60
2018-02-23T05:22:37.346Z,84.35
2018-02-23T05:25:05.717Z,85.20
2018-02-23T05:27:34.110Z,86.26
2018-02-23T05:30:02.502Z,86.71
2018-02-23T05:32:30.884Z,87.50
2018-02-23T05:34:59.281Z,88.07
2018-02-23T05:37:28.533Z,88.41
2018-02-23T05:39:57.050Z,88.67
2018-02-23T05:42:26.229Z,88.96
2018-02-23T05:44:54.615Z,89.17
2018-02-23T05:47:22.998Z,89.33
2018-02-23T05:49:52.164Z,89.55
2018-02-23T05:52:20.572Z,89.43
2018-02-23T05:54:48.942Z,89.58
2018-02-23T05:57:17.314Z,90.28
2018-02-23T05:59:47.450Z,90.57
2018-02-23T06:02:15.830Z,91.24
2018-02-23T06:04:44.209Z,91.20
2018-02-23T06:07:12.598Z,90.71
2018-02-23T06:09:41.736Z,90.15
2018-02-23T06:12:10.113Z,89.99
2018-02-23T06:14:38.505Z,90.32
2018-02-23T06:17:12.478Z,89.99
2018-02-23T06:19:47.232Z,89.90
2018-02-23T06:22:15.643Z,89.87
2018-02-23T06:24:44.013Z,89.73
2018-02-23T06:27:12.381Z,86.62
2018-02-23T06:29:40.766Z,87.55
2018-02-23T06:32:09.144Z,87.67
2018-02-23T06:34:37.514Z,87.89
2018-02-23T06:37:05.901Z,88.32
2018-02-23T06:39:34.269Z,88.35
2018-02-23T06:42:02.683Z,88.67
2018-02-23T06:44:31.052Z,88.87
2018-02-23T06:47:04.725Z,88.92
2018-02-23T06:49:33.093Z,88.91
2018-02-23T06:52:02.250Z,89.14
2018-02-23T06:54:30.622Z,89.22
2018-02-23T06:56:59.022Z,89.19
2018-02-23T06:59:27.458Z,89.21
2018-02-23T07:01:56.063Z,89.09
2018-02-23T07:04:24.443Z,89.00
2018-02-23T07:06:52.814Z,88.76
2018-02-23T07:09:21.213Z,88.47
2018-02-23T07:11:49.589Z,87.94
2018-02-23T07:14:17.970Z,87.82
2018-02-23T07:16:46.415Z,87.86
2018-02-23T07:19:15.556Z,87.68
2018-02-23T07:21:44.514Z,87.20
2018-02-23T07:24:13.029Z,86.95
2018-02-23T07:26:41.422Z,86.03
2018-02-23T07:29:09.791Z,85.45
2018-02-23T07:31:38.189Z,85.27
2018-02-23T07:34:06.569Z,85.00
2018-02-23T07:36:34.947Z,84.45
2018-02-23T07:39:03.334Z,84.60
2018-02-23T07:41:31.705Z,84.67
2018-02-23T07:44:00.113Z,84.08
2018-02-23T07:46:28.480Z,83.36
2018-02-23T07:48:56.847Z,82.82
2018-02-23T07:51:25.228Z,82.59
2018-02-23T07:53:53.602Z,81.45
2018-02-23T07:56:21.983Z,81.50
2018-02-23T07:58:50.386Z,81.04
2018-02-23T08:01:18.759Z,80.67
2018-02-23T08:03:47.134Z,80.17
2018-02-23T08:06:15.547Z,80.26
2018-02-23T08:08:43.921Z,80.18
2018-02-23T08:11:12.310Z,79.58
2018-02-23T08:13:40.687Z,78.42
2018-02-23T08:16:09.048Z,78.04
2018-02-23T08:18:37.435Z,78.17
2018-02-23T08:21:05.806Z,76.45
2018-02-23T08:23:34.197Z,76.18
2018-02-23T08:26:02.573Z,75.56
2018-02-23T08:28:30.934Z,74.87
2018-02-23T08:30:59.309Z,73.22
2018-02-23T08:33:27.713Z,73.72
2018-02-23T08:35:56.098Z,73.12
2018-02-23T08:38:24.477Z,72.30
2018-02-23T08:40:52.851Z,72.73
2018-02-23T08:43:21.317Z,72.40
2018-02-23T08:45:49.734Z,72.53
2018-02-23T08:48:18.112Z,71.50
2018-02-23T08:50:46.495Z,70.43
2018-02-23T08:53:14.890Z,70.68
2018-02-23T08:55:43.261Z,70.93
2018-02-23T08:58:11.660Z,69.85
2018-02-23T09:00:49.430Z,70.04
2018-02-23T09:03:17.817Z,70.04
2018-02-23T09:05:46.188Z,68.76
2018-02-23T09:08:14.585Z,69.54
2018-02-23T09:10:43.745Z,67.36
2018-02-23T09:13:12.130Z,67.15
2018-02-23T09:15:40.582Z,66.87
2018-02-23T09:18:08.982Z,66.15
2018-02-23T09:20:37.355Z,65.84
2018-02-23T09:23:05.717Z,65.04
2018-02-23T09:25:34.110Z,63.58
2018-02-23T09:28:02.472Z,61.17
2018-02-23T09:30:30.885Z,50.53
2018-02-23T09:32:59.280Z,44.55
2018-02-23T09:35:27.685Z,42.88
2018-02-23T09:37:56.913Z,41.73
2018-02-23T09:40:25.270Z,42.68
2018-02-23T09:42:54.414Z,38.92
2018-02-23T09:45:22.802Z,37.90
2018-02-23T09:47:51.185Z,40.65
2018-02-23T09:50:19.542Z,38.79
2018-02-23T09:52:47.913Z,39.65
2018-02-23T09:55:16.318Z,39.37
2018-02-23T09:57:44.688Z,39.50
2018-02-23T10:00:13.058Z,37.85
2018-02-23T10:02:41.425Z,39.85
2018-02-23T10:05:09.809Z,39.62
2018-02-23T10:07:38.192Z,37.42
2018-02-23T10:10:06.546Z,39.08
2018-02-23T10:12:35.665Z,41.71
2018-02-23T10:15:04.070Z,40.02
2018-02-23T10:17:32.433Z,38.26
2018-02-23T10:20:00.793Z,37.94
2018-02-23T10:22:29.177Z,38.03
2018-02-23T10:24:57.533Z,45.00
2018-02-23T10:27:26.674Z,46.34
2018-02-23T10:29:55.049Z,46.14
2018-02-23T10:32:23.412Z,46.77
2018-02-23T10:34:51.798Z,47.59
2018-02-23T10:37:20.167Z,47.93
2018-02-23T10:39:49.293Z,48.78
2018-02-23T10:42:17.673Z,49.42
2018-02-23T10:44:46.078Z,48.38
2018-02-23T10:47:14.481Z,47.96
2018-02-23T10:49:43.598Z,47.38
2018-02-23T10:52:12.745Z,48.33
2018-02-23T10:54:41.114Z,49.67
2018-02-23T10:57:09.594Z,49.21
2018-02-23T10:59:37.953Z,46.64
2018-02-23T11:02:06.313Z,45.94
2018-02-23T11:04:35.463Z,45.76
2018-02-23T11:07:03.837Z,44.98
2018-02-23T11:09:32.202Z,46.20
2018-02-23T11:12:00.609Z,46.71
2018-02-23T11:14:28.977Z,47.32
2018-02-23T11:16:57.341Z,47.35
2018-02-23T11:19:25.734Z,45.05
2018-02-23T11:21:54.097Z,44.50
2018-02-23T11:24:22.454Z,42.89
2018-02-23T11:26:51.598Z,42.77
2018-02-23T11:29:19.958Z,41.68
2018-02-23T11:31:48.397Z,42.33
2018-02-23T11:34:17.529Z,41.93
2018-02-23T11:36:45.882Z,40.30
2018-02-23T11:39:15.018Z,40.60
2018-02-23T11:41:43.509Z,40.87
2018-02-23T11:44:11.909Z,40.09
2018-02-23T11:46:40.274Z,40.26
2018-02-23T11:49:08.634Z,38.00
2018-02-23T11:51:37.014Z,37.96
2018-02-23T11:54:05.374Z,38.19
2018-02-23T11:56:33.751Z,36.92
2018-02-23T11:59:02.145Z,36.43
2018-02-23T12:01:30.514Z,36.44
2018-02-23T12:03:58.878Z,36.65
2018-02-23T12:06:27.249Z,37.24
2018-02-23T12:08:56.383Z,37.20
2018-02-23T12:11:24.753Z,37.61
2018-02-23T12:13:53.114Z,38.11
2018-02-23T12:16:21.502Z,38.39
2018-02-23T12:18:49.862Z,36.74
2018-02-23T12:21:19.140Z,37.36
2018-02-23T12:23:47.501Z,37.39
2018-02-23T12:26:15.869Z,36.44
2018-02-23T12:28:44.247Z,36.83
2018-02-23T12:31:12.622Z,36.75
2018-02-23T12:33:40.993Z,36.42
2018-02-23T12:36:09.349Z,35.63
2018-02-23T12:38:37.734Z,35.92
2018-02-23T12:41:06.102Z,36.32
2018-02-23T12:43:34.481Z,34.96
2018-02-23T12:46:02.880Z,34.70
2018-02-23T12:48:31.246Z,35.27
2018-02-23T12:51:00.541Z,34.60
2018-02-23T12:53:28.913Z,34.71
2018-02-23T12:55:57.315Z,36.12
2018-02-23T12:58:25.692Z,34.93
2018-02-23T13:00:54.049Z,35.38
2018-02-23T13:03:22.421Z,36.10
2018-02-23T13:08:48.540Z,35.71
2018-02-23T13:11:16.901Z,36.78
2018-02-23T13:13:45.290Z,35.67
2018-02-23T13:16:19.210Z,35.42
2018-02-23T13:18:47.574Z,35.96
2018-02-23T13:21:16.744Z,35.74
2018-02-23T13:23:45.701Z,35.03
2018-02-23T13:26:14.818Z,35.91
2018-02-23T13:28:45.023Z,37.31
2018-02-23T13:31:13.394Z,37.38
2018-02-23T13:33:41.792Z,37.48
2018-02-23T13:36:10.149Z,38.20
2018-02-23T13:38:39.298Z,37.78
2018-02-23T13:41:13.215Z,37.61
2018-02-23T13:43:41.631Z,37.38
2018-02-23T13:46:10.781Z,37.69
2018-02-23T13:48:39.184Z,37.04
2018-02-23T13:51:07.550Z,37.28
2018-02-23T13:53:41.494Z,38.08
2018-02-23T13:56:10.621Z,37.55
2018-02-23T13:58:39.018Z,38.44
2018-02-23T14:01:07.434Z,39.05
2018-02-23T14:03:35.798Z,38.85
2018-02-23T14:06:04.173Z,40.22
2018-02-23T14:08:32.585Z,39.61
2018-02-23T14:11:01.723Z,39.21
2018-02-23T14:13:30.122Z,40.23
2018-02-23T14:15:58.524Z,39.57
2018-02-23T14:18:26.925Z,38.67
2018-02-23T14:20:56.062Z,38.79
2018-02-23T14:23:24.437Z,38.67
2018-02-23T14:25:52.815Z,38.25
2018-02-23T14:28:21.201Z,37.66
2018-02-23T14:30:49.648Z,37.62
2018-02-23T14:33:18.777Z,38.02
2018-02-23T14:35:47.269Z,38.59
2018-02-23T14:38:15.634Z,39.47
2018-02-23T14:40:44.043Z,40.08
2018-02-23T14:43:12.445Z,39.92
2018-02-23T14:45:40.809Z,42.16
2018-02-23T14:51:11.571Z,43.98
2018-02-23T14:53:39.968Z,45.11
2018-02-23T14:56:09.136Z,45.74
2018-02-23T14:58:38.316Z,45.84
2018-02-23T15:01:06.718Z,45.74
2018-02-23T15:03:35.151Z,45.96
2018-02-23T15:06:03.525Z,46.46
2018-02-23T15:08:31.963Z,46.24
2018-02-23T15:11:00.381Z,46.10
2018-02-23T15:13:28.756Z,46.08
2018-02-23T15:15:57.156Z,46.72
2018-02-23T15:18:25.523Z,47.12
2018-02-23T15:20:53.912Z,47.24
2018-02-23T15:23:22.284Z,47.82
2018-02-23T15:25:50.699Z,47.91
2018-02-23T15:28:19.073Z,48.20
2018-02-23T15:31:05.442Z,47.13
2018-02-23T15:33:33.830Z,47.61
2018-02-23T15:36:02.213Z,47.29
2018-02-23T15:38:30.614Z,47.18
2018-02-23T15:40:59.006Z,47.71
2018-02-23T15:43:27.376Z,46.85
2018-02-23T15:45:55.772Z,46.43
2018-02-23T15:48:27.328Z,46.38
2018-02-23T15:54:01.413Z,47.15
2018-02-23T15:56:29.797Z,47.34
2018-02-23T15:58:58.219Z,47.25
2018-02-23T16:01:26.641Z,47.25
2018-02-23T16:03:55.102Z,47.14
2018-02-23T16:06:24.322Z,47.42
2018-02-23T16:08:52.705Z,47.42
2018-02-23T16:11:21.080Z,47.91
2018-02-23T16:13:49.478Z,47.17
2018-02-23T16:16:17.870Z,47.28
2018-02-23T16:18:46.244Z,47.34
2018-02-23T16:21:14.658Z,47.64
2018-02-23T16:23:43.790Z,47.78
2018-02-23T16:26:12.174Z,48.10
2018-02-23T16:28:40.585Z,48.38
2018-02-23T16:31:09.050Z,48.35
2018-02-23T16:33:37.427Z,48.81
2018-02-23T16:36:05.805Z,49.33
2018-02-23T16:38:34.213Z,49.53
2018-02-23T16:41:02.631Z,49.30
2018-02-23T16:43:31.063Z,49.36
2018-02-23T16:45:59.455Z,48.98
2018-02-23T16:48:28.658Z,48.74
2018-02-23T16:50:57.079Z,49.04
2018-02-23T16:53:25.489Z,49.32
2018-02-23T16:55:53.894Z,49.61
2018-02-23T16:58:23.526Z,49.52
2018-02-23T17:00:51.939Z,49.34
2018-02-23T17:03:20.331Z,49.36
2018-02-23T17:05:48.766Z,49.82
2018-02-23T17:08:17.146Z,49.69
2018-02-23T17:10:45.527Z,49.71
2018-02-23T17:13:13.923Z,50.21
2018-02-23T17:15:42.305Z,50.65
2018-02-23T17:18:10.729Z,50.85
2018-02-23T17:20:39.884Z,51.30
2018-02-23T17:23:09.049Z,51.27
2018-02-23T17:25:37.436Z,51.27
2018-02-23T17:28:05.801Z,51.64
2018-02-23T17:30:34.216Z,51.63
2018-02-23T17:33:03.426Z,51.86
2018-02-23T17:35:31.860Z,51.88
2018-02-23T17:38:00.273Z,52.19
2018-02-23T17:40:28.691Z,52.37
2018-02-23T17:42:57.967Z,52.70
2018-02-23T17:45:26.375Z,53.21
2018-02-23T17:47:55.579Z,53.42
2018-02-23T17:50:23.971Z,53.48
2018-02-23T17:52:52.353Z,53.61
2018-02-23T17:55:20.751Z,53.55
2018-02-23T17:57:49.122Z,53.50
2018-02-23T18:00:17.561Z,53.80
2018-02-23T18:02:46.742Z,53.99
2018-02-23T18:05:15.162Z,54.44
2018-02-23T18:07:43.554Z,54.60
2018-02-23T18:10:11.953Z,54.99
2018-02-23T18:12:40.394Z,54.55
2018-02-23T18:15:08.794Z,54.61
2018-02-23T18:17:37.205Z,54.77
2018-02-23T18:20:06.376Z,54.98
2018-02-23T18:22:34.759Z,55.23
2018-02-23T18:25:03.160Z,55.21
2018-02-23T18:27:31.541Z,55.64
2018-02-23T18:29:59.919Z,55.66
2018-02-23T18:32:28.351Z,55.60
2018-02-23T18:34:56.779Z,55.56
2018-02-23T18:37:25.170Z,55.32
2018-02-23T18:39:53.572Z,54.93
2018-02-23T18:42:22.773Z,54.97
2018-02-23T18:44:52.073Z,55.07
2018-02-23T18:47:20.549Z,55.71
2018-02-23T18:49:49.702Z,55.19
2018-02-23T18:52:18.148Z,55.16
2018-02-23T18:54:46.525Z,55.10
2018-02-23T18:57:14.952Z,55.08
2018-02-23T18:59:43.366Z,55.15
2018-02-23T19:02:12.530Z,55.40
2018-02-23T19:04:40.935Z,55.56
2018-02-23T19:07:10.133Z,55.86
2018-02-23T19:09:39.305Z,55.78
2018-02-23T19:12:07.712Z,56.29
2018-02-23T19:14:36.894Z,56.30
2018-02-23T19:17:05.299Z,56.58
2018-02-23T19:19:33.687Z,56.96
2018-02-23T19:22:02.120Z,57.27
2018-02-23T19:24:30.527Z,57.18
2018-02-23T19:26:59.662Z,57.63
2018-02-23T19:29:28.069Z,57.70
2018-02-23T19:31:56.469Z,57.86
2018-02-23T19:34:25.643Z,57.84
2018-02-23T19:36:54.031Z,57.94
2018-02-23T19:39:23.242Z,58.18
2018-02-23T19:41:52.394Z,58.43
2018-02-23T19:44:20.786Z,58.71
2018-02-23T19:46:49.184Z,59.17
2018-02-23T19:49:17.584Z,59.31
2018-02-23T19:51:46.835Z,59.80
2018-02-23T19:54:15.236Z,60.07
2018-02-23T19:56:43.632Z,59.97
2018-02-23T20:02:11.326Z,60.24
2018-02-23T20:04:40.493Z,60.45
2018-02-23T20:07:08.944Z,60.44
2018-02-23T20:09:37.339Z,60.56
2018-02-23T20:12:05.742Z,60.78
2018-02-23T20:14:34.164Z,60.95
2018-02-23T20:17:02.592Z,60.86
2018-02-23T20:19:31.026Z,60.77
2018-02-23T20:21:59.398Z,60.79
2018-02-23T20:24:27.788Z,60.82
2018-02-23T20:26:56.202Z,60.70
2018-02-23T20:29:24.620Z,60.77
2018-02-23T20:31:53.018Z,60.88
2018-02-23T20:34:21.428Z,61.03
2018-02-23T20:36:49.864Z,61.01
2018-02-23T20:39:18.245Z,61.00
2018-02-23T20:41:46.849Z,61.31
2018-02-23T20:44:15.237Z,61.22
2018-02-23T20:46:43.677Z,61.31
2018-02-23T20:49:12.190Z,61.57
2018-02-23T20:51:40.629Z,61.91
2018-02-23T20:54:09.813Z,62.13
2018-02-23T20:56:38.212Z,62.30
2018-02-23T20:59:07.395Z,62.55
2018-02-23T21:01:35.803Z,62.63
2018-02-23T21:04:04.322Z,62.90
2018-02-23T21:06:32.735Z,62.91
2018-02-23T21:09:01.901Z,62.98
2018-02-23T21:11:30.329Z,63.21
2018-02-23T21:13:58.714Z,63.05
2018-02-23T21:16:27.094Z,63.62
2018-02-23T21:18:55.533Z,63.50
2018-02-23T21:21:23.956Z,63.76
2018-02-23T21:23:52.385Z,63.82
2018-02-23T21:26:20.791Z,63.72
2018-02-23T21:28:50.036Z,63.57
2018-02-23T21:31:18.459Z,63.41
2018-02-23T21:33:47.663Z,63.67
2018-02-23T21:36:16.853Z,63.82
2018-02-23T21:38:45.228Z,63.84
2018-02-23T21:41:13.607Z,63.80
2018-02-23T21:43:42.136Z,64.03
2018-02-23T21:46:10.518Z,63.93
2018-02-23T21:48:38.917Z,63.88
2018-02-23T21:51:07.315Z,63.64
2018-02-23T21:53:35.717Z,63.73
2018-02-23T21:56:04.880Z,63.84
2018-02-23T21:58:33.308Z,63.86
2018-02-23T22:01:01.719Z,64.06
2018-02-23T22:03:30.098Z,64.11
2018-02-23T22:05:58.498Z,64.08
2018-02-23T22:08:26.877Z,64.11
2018-02-23T22:10:55.296Z,64.22
2018-02-23T22:13:24.519Z,64.08
2018-02-23T22:15:52.932Z,64.25
2018-02-23T22:18:21.313Z,64.40
2018-02-23T22:20:49.726Z,64.28
2018-02-23T22:23:18.878Z,64.42
2018-02-23T22:25:47.285Z,64.55
2018-02-23T22:28:16.432Z,64.65
2018-02-23T22:30:44.847Z,64.62
2018-02-23T22:33:13.270Z,64.70
2018-02-23T22:35:41.647Z,64.73
2018-02-23T22:38:10.070Z,64.80
2018-02-23T22:40:38.660Z,64.91
2018-02-23T22:43:07.041Z,64.77
2018-02-23T22:45:35.458Z,64.67
2018-02-23T22:48:04.673Z,64.90
2018-02-23T22:50:33.074Z,64.84
2018-02-23T22:53:01.467Z,64.86
2018-02-23T22:55:29.894Z,64.91
2018-02-23T22:57:58.288Z,64.98
2018-02-23T23:00:26.661Z,64.58
2018-02-23T23:02:55.082Z,64.67
2018-02-23T23:05:23.452Z,64.61
2018-02-23T23:07:51.837Z,64.60
2018-02-23T23:10:20.247Z,64.80
2018-02-23T23:12:49.425Z,64.44
2018-02-23T23:15:17.854Z,64.55
2018-02-23T23:17:46.227Z,64.87
2018-02-23T23:20:14.604Z,64.96
2018-02-23T23:22:43.788Z,65.18
2018-02-23T23:25:12.946Z,65.38
2018-02-23T23:27:41.337Z,65.42
2018-02-23T23:30:09.758Z,65.61
2018-02-23T23:32:38.189Z,65.79
2018-02-23T23:35:06.601Z,66.22
2018-02-23T23:37:35.790Z,66.46
2018-02-23T23:40:04.189Z,66.85
2018-02-23T23:42:32.594Z,66.99
2018-02-23T23:45:00.995Z,66.94
2018-02-23T23:47:29.411Z,66.97
2018-02-23T23:49:58.573Z,67.26
2018-02-23T23:52:26.961Z,67.49
2018-02-23T23:54:55.367Z,67.61
2018-02-23T23:57:24.535Z,67.73
2018-02-23T23:59:52.949Z,68.12
